Itaqui, Brazil
Current Conditions -  °F | °C
As of 4:00 PM on Monday 24 Nov 2014 (Local Time) from SARL Reporting Station
Clear Clear  
Wind Chill: 95°   Ceiling: Unl
Heat Index: 98°   Visibility: 6mi
Dew Point: 66°   Wind: 9mph
Humidity: 39%   Direction: 50°NE
Pressure: 29.74"   Gusts: NA
Location:  29.13°S, 56.55°W
Report Text: SARL 241800Z 05008KT CAVOK 35/19 Q1007
Loading
Personal Weather Stations






























Interactive Weather Map New forecast layout! Learn more

10-Day Weather Forecast

Advertisements
Track Severe Weather on mobile